Sheridan, Montana
Current Conditions -  °F | °C
As of 2:53 AM on Thursday 27 Nov 2014 (Local Time) from KDLN Reporting Station
Few Clouds Few Clouds  
Wind Chill: 34°   Ceiling: Unl
Heat Index: 40°   Visibility: 10mi
Dew Point: 24°   Wind: 8mph
Humidity: 53%   Direction: 180°S
Pressure: 30.1"   Gusts: NA
Location:  45.46°N, 112.2°W
Report Text: KDLN 270953Z AUTO 18007KT 10SM FEW120 04/M04 A3010 RMK AO2 SLP180 T00441044
Loading
Personal Weather Stations






























Interactive Weather Map New forecast layout! Learn more

10-Day Weather Forecast

Advertisements
Track Severe Weather on mobile